createdAt,value
2024-01-15T00:00:06.266Z,5.00
2024-01-15T00:05:08.375Z,4.78
2024-01-15T00:10:05.275Z,4.82
2024-01-15T00:15:01.900Z,4.80
2024-01-15T00:19:58.499Z,4.79
2024-01-15T00:24:55.832Z,4.92
2024-01-15T00:29:52.822Z,4.84
2024-01-15T00:34:49.633Z,4.77
2024-01-15T00:39:46.419Z,4.85
2024-01-15T00:44:43.670Z,4.70
2024-01-15T00:49:40.367Z,4.59
2024-01-15T00:54:36.886Z,4.74
2024-01-15T00:59:33.478Z,4.59
2024-01-15T01:04:30.752Z,4.72
2024-01-15T01:09:29.662Z,4.47
2024-01-15T01:14:26.186Z,4.61
2024-01-15T01:19:22.995Z,4.42
2024-01-15T01:24:20.392Z,4.61
2024-01-15T01:29:16.897Z,4.47
2024-01-15T01:34:15.064Z,4.48
2024-01-15T01:39:12.312Z,4.35
2024-01-15T01:44:09.589Z,4.17
2024-01-15T01:49:07.037Z,4.32
2024-01-15T01:54:04.259Z,4.05
2024-01-15T01:59:01.375Z,4.15
2024-01-15T02:04:00.198Z,4.00
2024-01-15T02:08:56.926Z,3.96
2024-01-15T02:13:53.534Z,3.62
2024-01-15T02:18:50.212Z,3.54
2024-01-15T02:23:47.592Z,3.55
2024-01-15T02:28:44.956Z,3.47
2024-01-15T02:33:42.701Z,3.42
2024-01-15T02:38:39.292Z,3.32
2024-01-15T02:43:36.566Z,3.39
2024-01-15T02:48:33.487Z,3.34
2024-01-15T02:53:30.145Z,3.36
2024-01-15T02:58:26.746Z,3.28
2024-01-15T03:03:24.577Z,3.12
2024-01-15T03:08:23.001Z,3.30
2024-01-15T03:13:19.974Z,3.47
2024-01-15T03:18:16.553Z,3.50
2024-01-15T03:23:13.857Z,3.92
2024-01-15T03:28:10.417Z,4.12
2024-01-15T03:33:07.040Z,4.28
2024-01-15T03:38:03.733Z,4.36
2024-01-15T03:43:00.908Z,4.03
2024-01-15T03:47:57.496Z,4.02
2024-01-15T03:52:54.124Z,4.00
2024-01-15T03:57:50.691Z,4.07
2024-01-15T04:02:48.019Z,4.06
2024-01-15T04:07:44.688Z,4.18
2024-01-15T04:12:41.220Z,4.24
2024-01-15T04:17:37.812Z,4.19
2024-01-15T04:22:35.029Z,4.18
2024-01-15T04:27:31.619Z,4.24
2024-01-15T04:32:28.242Z,4.07
2024-01-15T04:37:24.740Z,4.04
2024-01-15T04:42:22.288Z,3.99
2024-01-15T04:47:18.812Z,4.14
2024-01-15T04:52:15.331Z,4.14
2024-01-15T04:57:11.990Z,4.17
2024-01-15T05:02:09.288Z,4.28
2024-01-15T05:07:05.934Z,4.16
2024-01-15T05:12:02.555Z,3.94
2024-01-15T05:16:59.066Z,3.54
2024-01-15T05:21:56.308Z,3.37
2024-01-15T05:26:52.897Z,3.46
2024-01-15T05:31:49.601Z,3.08
2024-01-15T05:36:48.273Z,3.34
2024-01-15T05:41:45.495Z,3.21
2024-01-15T05:46:42.030Z,3.36
2024-01-15T05:51:38.627Z,3.55
2024-01-15T05:56:35.381Z,3.70
2024-01-15T06:01:32.680Z,3.80
2024-01-15T06:06:29.513Z,4.01
2024-01-15T06:11:30.380Z,4.04
2024-01-15T06:16:27.207Z,4.12
2024-01-15T06:21:24.532Z,4.09
2024-01-15T06:26:21.057Z,4.11
2024-01-15T06:31:17.719Z,4.09
2024-01-15T06:36:14.602Z,4.24
2024-01-15T06:41:12.036Z,4.19
2024-01-15T06:46:09.164Z,4.12
2024-01-15T06:51:06.012Z,4.03
2024-01-15T06:56:02.596Z,3.80
2024-01-15T07:01:00.096Z,3.59
2024-01-15T07:05:56.805Z,3.57
2024-01-15T07:10:53.447Z,2.78
2024-01-15T07:15:50.715Z,3.03
2024-01-15T07:20:48.233Z,3.36
2024-01-15T07:25:44.784Z,3.66
2024-01-15T07:30:41.535Z,3.96
2024-01-15T07:35:38.729Z,4.01
2024-01-15T07:40:37.369Z,4.10
2024-01-15T07:45:34.084Z,3.60
2024-01-15T07:50:31.477Z,3.76
2024-01-15T07:55:28.111Z,3.95
2024-01-15T08:00:26.959Z,4.18
2024-01-15T08:05:24.169Z,4.43
2024-01-15T08:10:20.983Z,4.65
2024-01-15T08:15:18.777Z,4.79
2024-01-15T08:20:16.782Z,4.89
2024-01-15T08:25:14.061Z,4.89
2024-01-15T08:30:11.430Z,5.02
2024-01-15T08:35:08.376Z,5.04
2024-01-15T08:40:06.204Z,5.21
2024-01-15T08:45:05.386Z,5.28
2024-01-15T08:50:02.399Z,5.42
2024-01-15T08:54:59.136Z,5.43
2024-01-15T08:59:56.487Z,5.54
2024-01-15T09:04:53.184Z,5.86
2024-01-15T09:09:51.753Z,6.49
2024-01-15T09:14:48.393Z,7.07
2024-01-15T09:19:46.176Z,7.27
2024-01-15T09:24:43.179Z,7.42
2024-01-15T09:29:45.601Z,7.84
2024-01-15T09:34:42.363Z,8.12
2024-01-15T09:39:39.848Z,8.05
2024-01-15T09:44:36.524Z,7.96
2024-01-15T09:49:33.692Z,7.90
2024-01-15T09:54:30.348Z,8.29
2024-01-15T09:59:28.057Z,8.64
2024-01-15T10:04:25.092Z,8.64
2024-01-15T10:09:21.957Z,8.63
2024-01-15T10:14:18.523Z,8.60
2024-01-15T10:19:15.845Z,8.76
2024-01-15T10:24:13.469Z,8.81
2024-01-15T10:29:11.306Z,8.84
2024-01-15T10:34:12.588Z,9.15
2024-01-15T10:39:10.130Z,9.42
2024-01-15T10:44:07.026Z,9.51
2024-01-15T10:49:04.956Z,9.88
2024-01-15T10:54:02.168Z,9.96
2024-01-15T10:59:00.938Z,10.16
2024-01-15T11:03:58.378Z,10.20
2024-01-15T11:08:55.427Z,10.15
2024-01-15T11:13:52.939Z,10.15
2024-01-15T11:19:08.818Z,10.23
2024-01-15T11:24:11.723Z,10.68
2024-01-15T11:29:09.099Z,10.83
2024-01-15T11:34:06.208Z,10.75
2024-01-15T11:39:30.848Z,10.75
2024-01-15T11:44:27.758Z,10.90
2024-01-15T11:49:30.768Z,10.98
2024-01-15T11:54:33.141Z,10.96
2024-01-15T11:59:30.043Z,10.97
2024-01-15T12:04:27.329Z,11.09
2024-01-15T12:09:25.341Z,11.16
2024-01-15T12:14:22.962Z,11.11
2024-01-15T12:19:19.821Z,11.20
2024-01-15T12:24:17.782Z,11.37
2024-01-15T12:29:14.496Z,11.50
2024-01-15T12:34:11.798Z,11.36
2024-01-15T12:39:14.268Z,11.36
2024-01-15T12:44:12.188Z,11.66
2024-01-15T12:49:08.986Z,11.41
2024-01-15T12:54:15.199Z,11.42
2024-01-15T12:59:11.702Z,11.43
2024-01-15T13:04:09.403Z,11.57
2024-01-15T13:09:06.207Z,11.50
2024-01-15T13:14:03.482Z,11.53
2024-01-15T13:19:00.250Z,11.54
2024-01-15T13:23:56.972Z,11.35
2024-01-15T13:28:54.057Z,11.65
2024-01-15T13:33:52.695Z,11.48
2024-01-15T13:38:50.558Z,11.35
2024-01-15T13:43:48.797Z,11.45
2024-01-15T13:48:45.412Z,11.32
2024-01-15T13:53:51.398Z,11.49
2024-01-15T13:58:48.808Z,11.17
2024-01-15T14:03:45.572Z,11.25
2024-01-15T14:08:42.292Z,11.32
2024-01-15T14:13:39.506Z,11.05
2024-01-15T14:18:36.409Z,11.11
2024-01-15T14:23:33.305Z,11.07
2024-01-15T14:28:29.851Z,11.19
2024-01-15T14:33:27.312Z,11.13
2024-01-15T14:38:23.961Z,11.04
2024-01-15T14:43:21.723Z,10.99
2024-01-15T14:48:19.218Z,10.91
2024-01-15T14:53:16.452Z,10.88
2024-01-15T14:58:12.947Z,10.68
2024-01-15T15:03:10.952Z,10.65
2024-01-15T15:08:09.238Z,10.57
2024-01-15T15:13:06.752Z,10.51
2024-01-15T15:18:03.693Z,10.45
2024-01-15T15:23:00.242Z,10.36
2024-01-15T15:27:57.016Z,10.21
2024-01-15T15:32:54.967Z,10.16
2024-01-15T15:37:53.269Z,10.07
2024-01-15T15:42:49.906Z,10.02
2024-01-15T15:47:46.531Z,9.89
2024-01-15T15:52:43.924Z,9.89
2024-01-15T15:57:40.586Z,9.86
2024-01-15T16:02:37.349Z,9.80
2024-01-15T16:07:36.600Z,9.70
2024-01-15T16:12:33.869Z,9.65
2024-01-15T16:23:16.093Z,9.58
2024-01-15T16:23:43.984Z,9.43
2024-01-15T16:28:05.845Z,9.36
2024-01-15T16:33:02.687Z,9.17
2024-01-15T16:37:59.378Z,8.94
2024-01-15T16:42:56.163Z,8.96
2024-01-15T16:47:53.539Z,8.86
2024-01-15T16:52:52.160Z,8.93
2024-01-15T16:57:48.714Z,9.03
2024-01-15T17:02:45.368Z,9.08
2024-01-15T17:07:42.752Z,9.05
2024-01-15T17:12:39.346Z,8.94
2024-01-15T17:17:36.084Z,8.90
2024-01-15T17:22:36.968Z,8.81
2024-01-15T17:27:34.242Z,8.79
2024-01-15T17:32:30.963Z,8.78
2024-01-15T17:37:27.594Z,8.80
2024-01-15T17:42:24.248Z,8.82
2024-01-15T17:47:21.503Z,8.75
2024-01-15T17:52:18.272Z,8.77
2024-01-15T17:57:14.923Z,8.33
2024-01-15T18:02:11.921Z,8.82
2024-01-15T18:07:09.141Z,8.61
2024-01-15T18:12:05.884Z,8.63
2024-01-15T18:17:02.541Z,8.30
2024-01-15T18:21:59.065Z,8.43
2024-01-15T18:26:56.263Z,8.63
2024-01-15T18:31:52.858Z,8.66
2024-01-15T18:36:50.244Z,8.70
2024-01-15T18:41:46.965Z,8.78
2024-01-15T18:46:53.405Z,8.75
2024-01-15T18:51:53.752Z,8.69
2024-01-15T18:56:51.887Z,8.69
2024-01-15T19:01:50.456Z,8.84
2024-01-15T19:06:49.501Z,8.87
2024-01-15T19:11:46.331Z,8.78
2024-01-15T19:16:43.235Z,8.84
2024-01-15T19:21:39.896Z,8.82
2024-01-15T19:26:37.147Z,8.80
2024-01-15T19:31:33.798Z,8.70
2024-01-15T19:36:30.440Z,8.84
2024-01-15T19:41:26.983Z,8.81
2024-01-15T19:46:24.398Z,8.88
2024-01-15T19:51:20.909Z,8.69
2024-01-15T19:56:18.034Z,8.62
2024-01-15T20:01:14.665Z,8.92
2024-01-15T20:06:13.964Z,8.87
2024-01-15T20:11:10.868Z,8.64
2024-01-15T20:16:08.299Z,8.58
2024-01-15T20:21:05.224Z,8.61
2024-01-15T20:26:03.381Z,8.67
2024-01-15T20:30:59.917Z,8.79
2024-01-15T20:35:56.543Z,8.75
2024-01-15T20:40:53.069Z,8.76
2024-01-15T20:45:50.484Z,8.75
2024-01-15T20:50:47.060Z,8.60
2024-01-15T20:55:43.985Z,8.50
2024-01-15T21:00:40.638Z,8.09
2024-01-15T21:05:37.882Z,7.97
2024-01-15T21:10:34.544Z,8.02
2024-01-15T21:15:31.087Z,8.22
2024-01-15T21:20:27.749Z,8.25
2024-01-15T21:25:25.023Z,8.48
2024-01-15T21:30:22.525Z,8.87
2024-01-15T21:35:19.128Z,8.44
2024-01-15T21:40:16.381Z,8.34
2024-01-15T21:45:13.635Z,8.66
2024-01-15T21:50:10.568Z,8.69
2024-01-15T21:55:08.557Z,8.60
2024-01-15T22:00:06.931Z,8.37
2024-01-15T22:05:08.725Z,8.38
2024-01-15T22:10:07.836Z,8.50
2024-01-15T22:15:04.613Z,8.57
2024-01-15T22:20:01.319Z,8.46
2024-01-15T22:24:58.559Z,8.83
2024-01-15T22:29:55.191Z,8.72
2024-01-15T22:34:51.795Z,9.03
2024-01-15T22:39:48.889Z,8.82
2024-01-15T22:44:46.250Z,9.10
2024-01-15T22:49:43.395Z,9.29
2024-01-15T22:54:39.894Z,9.29
2024-01-15T22:59:36.592Z,9.27
2024-01-15T23:04:33.785Z,9.54
2024-01-15T23:09:30.352Z,9.08
2024-01-15T23:14:26.864Z,9.08
2024-01-15T23:19:23.604Z,9.05
2024-01-15T23:24:21.018Z,9.08
2024-01-15T23:29:17.884Z,8.90
2024-01-15T23:34:14.475Z,8.99
2024-01-15T23:39:11.263Z,9.03
2024-01-15T23:44:08.511Z,8.77
2024-01-15T23:49:05.130Z,8.81
2024-01-15T23:54:01.700Z,8.96
2024-01-15T23:58:58.276Z,8.63
